createdAt,value
2022-10-01T00:00:19.855Z,30.195
2022-10-01T00:05:15.948Z,30.194
2022-10-01T00:10:18.945Z,30.195
2022-10-01T00:15:18.954Z,30.195
2022-10-01T00:20:18.922Z,30.195
2022-10-01T00:25:18.950Z,30.194
2022-10-01T00:30:15.951Z,30.195
2022-10-01T00:35:19.961Z,30.192
2022-10-01T00:40:18.974Z,30.195
2022-10-01T00:45:15.965Z,30.196
2022-10-01T00:50:19.008Z,30.192
2022-10-01T00:55:15.803Z,30.191
2022-10-01T01:00:15.961Z,30.193
2022-10-01T01:05:18.992Z,30.192
2022-10-01T01:10:20.342Z,30.189
2022-10-01T01:15:18.950Z,30.187
2022-10-01T01:20:15.963Z,30.185
2022-10-01T01:25:15.994Z,30.186
2022-10-01T01:30:18.981Z,30.185
2022-10-01T01:35:15.991Z,30.183
2022-10-01T01:40:15.978Z,30.183
2022-10-01T01:45:20.021Z,30.183
2022-10-01T01:50:19.015Z,30.183
2022-10-01T01:55:18.995Z,30.185
2022-10-01T02:00:16.052Z,30.186
2022-10-01T02:05:18.985Z,30.184
2022-10-01T02:10:19.008Z,30.185
2022-10-01T02:15:16.063Z,30.181
2022-10-01T02:20:16.896Z,30.180
2022-10-01T02:25:19.053Z,30.179
2022-10-01T02:30:18.986Z,30.178
2022-10-01T02:35:18.951Z,30.180
2022-10-01T02:40:19.022Z,30.180
2022-10-01T02:45:19.035Z,30.181
2022-10-01T02:50:20.014Z,30.178
2022-10-01T02:55:18.982Z,30.176
2022-10-01T03:00:19.024Z,30.173
2022-10-01T03:05:19.059Z,30.172
2022-10-01T03:10:19.016Z,30.175
2022-10-01T03:15:19.044Z,30.170
2022-10-01T03:20:16.069Z,30.170
2022-10-01T03:25:20.077Z,30.169
2022-10-01T03:30:15.840Z,30.168
2022-10-01T03:35:19.062Z,30.170
2022-10-01T03:40:16.068Z,30.169
2022-10-01T03:45:16.089Z,30.170
2022-10-01T03:50:19.102Z,30.171
2022-10-01T03:55:18.995Z,30.170
2022-10-01T04:00:21.377Z,30.168
2022-10-01T04:05:17.322Z,30.167
2022-10-01T04:10:20.419Z,30.167
2022-10-01T04:15:20.251Z,30.164
2022-10-01T04:20:20.231Z,30.164
2022-10-01T04:25:17.335Z,30.161
2022-10-01T04:30:20.324Z,30.156
2022-10-01T04:35:21.406Z,30.156
2022-10-01T04:40:20.305Z,30.156
2022-10-01T04:45:20.288Z,30.155
2022-10-01T04:50:20.295Z,30.151
2022-10-01T04:55:17.360Z,30.151
2022-10-01T05:00:20.324Z,30.150
2022-10-01T05:05:20.358Z,30.149
2022-10-01T05:10:18.175Z,30.148
2022-10-01T05:15:17.337Z,30.143
2022-10-01T05:20:20.348Z,30.143
2022-10-01T05:25:20.327Z,30.143
2022-10-01T05:30:18.314Z,30.137
2022-10-01T05:35:20.336Z,30.139
2022-10-01T05:40:21.318Z,30.139
2022-10-01T05:45:18.297Z,30.140
2022-10-01T05:50:18.303Z,30.140
2022-10-01T05:55:18.312Z,30.138
2022-10-01T06:00:15.361Z,30.139
2022-10-01T06:05:15.394Z,30.136
2022-10-01T06:10:18.337Z,30.134
2022-10-01T06:15:19.336Z,30.134
2022-10-01T06:20:20.396Z,30.130
2022-10-01T06:25:15.371Z,30.131
2022-10-01T06:30:18.357Z,30.132
2022-10-01T06:35:18.319Z,30.132
2022-10-01T06:40:18.319Z,30.130
2022-10-01T06:45:15.368Z,30.129
2022-10-01T06:50:16.440Z,30.134
2022-10-01T06:55:18.354Z,30.133
2022-10-01T07:00:15.364Z,30.130
2022-10-01T07:05:18.349Z,30.129
2022-10-01T07:10:18.345Z,30.123
2022-10-01T07:15:15.456Z,30.117
2022-10-01T07:20:15.432Z,30.111
2022-10-01T07:25:19.433Z,30.113
2022-10-01T07:30:18.351Z,30.112
2022-10-01T07:35:18.335Z,30.111
2022-10-01T07:40:15.367Z,30.112
2022-10-01T07:45:15.435Z,30.111
2022-10-01T07:50:18.375Z,30.111
2022-10-01T07:55:18.375Z,30.119
2022-10-01T08:00:19.257Z,30.119
2022-10-01T08:05:15.427Z,30.119
2022-10-01T08:10:15.441Z,30.118
2022-10-01T08:15:18.388Z,30.119
2022-10-01T08:20:18.391Z,30.116
2022-10-01T08:25:18.430Z,30.114
2022-10-01T08:30:15.406Z,30.120
2022-10-01T08:35:19.382Z,30.121
2022-10-01T08:40:18.405Z,30.120
2022-10-01T08:45:18.369Z,30.119
2022-10-01T08:50:18.384Z,30.118
2022-10-01T08:55:15.490Z,30.117
2022-10-01T09:00:15.505Z,30.120
2022-10-01T09:05:15.445Z,30.120
2022-10-01T09:10:19.455Z,30.121
2022-10-01T09:15:18.386Z,30.122
2022-10-01T09:20:18.449Z,30.121
2022-10-01T09:25:15.424Z,30.123
2022-10-01T09:30:15.487Z,30.122
2022-10-01T09:35:18.419Z,30.124
2022-10-01T09:40:18.410Z,30.124
2022-10-01T09:45:19.347Z,30.124
2022-10-01T09:50:18.418Z,30.124
2022-10-01T09:55:15.444Z,30.128
2022-10-01T10:00:15.603Z,30.129
2022-10-01T10:05:18.487Z,30.129
2022-10-01T10:10:21.059Z,30.127
2022-10-01T10:15:15.434Z,30.123
2022-10-01T10:20:16.326Z,30.120
2022-10-01T10:25:15.452Z,30.126
2022-10-01T10:30:18.522Z,30.125
2022-10-01T10:35:18.441Z,30.126
2022-10-01T10:40:18.476Z,30.126
2022-10-01T10:45:15.484Z,30.120
2022-10-01T10:50:15.579Z,30.118
2022-10-01T10:55:19.538Z,30.117
2022-10-01T11:00:18.488Z,30.119
2022-10-01T11:05:18.433Z,30.117
2022-10-01T11:10:18.488Z,30.115
2022-10-01T11:15:15.513Z,30.117
2022-10-01T11:20:20.451Z,30.119
2022-10-01T11:25:18.503Z,30.120
2022-10-01T11:30:19.569Z,30.117
2022-10-01T11:35:18.444Z,30.116
2022-10-01T11:40:18.452Z,30.117
2022-10-01T11:45:18.477Z,30.120
2022-10-01T11:50:18.458Z,30.124
2022-10-01T11:55:15.557Z,30.126
2022-10-01T12:00:15.536Z,30.128
2022-10-01T12:05:19.704Z,30.130
2022-10-01T12:10:18.526Z,30.135
2022-10-01T12:15:15.344Z,30.138
2022-10-01T12:20:15.551Z,30.147
2022-10-01T12:25:18.545Z,30.149
2022-10-01T12:30:18.521Z,30.151
2022-10-01T12:35:15.561Z,30.153
2022-10-01T12:40:19.549Z,30.152
2022-10-01T12:45:18.515Z,30.148
2022-10-01T12:50:15.515Z,30.147
2022-10-01T12:55:18.530Z,30.147
2022-10-01T13:00:18.700Z,30.147
2022-10-01T13:05:15.565Z,30.146
2022-10-01T13:10:15.529Z,30.147
2022-10-01T13:15:19.585Z,30.147
2022-10-01T13:20:18.511Z,30.147
2022-10-01T13:25:15.547Z,30.144
2022-10-01T13:30:18.659Z,30.141
2022-10-01T13:35:15.541Z,30.135
2022-10-01T13:40:15.592Z,30.133
2022-10-01T13:45:16.808Z,30.133
2022-10-01T13:50:19.513Z,30.135
2022-10-01T13:55:18.552Z,30.133
2022-10-01T14:00:15.579Z,30.137
2022-10-01T14:05:15.577Z,30.135
2022-10-01T14:10:18.539Z,30.133
2022-10-01T14:15:15.554Z,30.132
2022-10-01T14:20:15.546Z,30.132
2022-10-01T14:25:19.623Z,30.123
2022-10-01T14:30:18.550Z,30.125
2022-10-01T14:35:18.530Z,30.125
2022-10-01T14:40:15.588Z,30.123
2022-10-01T14:45:18.604Z,30.122
2022-10-01T14:50:18.579Z,30.119
2022-10-01T14:55:18.557Z,30.112
2022-10-01T15:00:16.627Z,30.112
2022-10-01T15:05:20.391Z,30.116
2022-10-01T15:10:18.534Z,30.119
2022-10-01T15:15:18.565Z,30.119
2022-10-01T15:20:15.587Z,30.116
2022-10-01T15:25:18.558Z,30.110
2022-10-01T15:30:19.594Z,30.108
2022-10-01T15:35:18.558Z,30.106
2022-10-01T15:40:18.529Z,30.105
2022-10-01T15:45:18.554Z,30.101
2022-10-01T15:50:18.544Z,30.100
2022-10-01T15:55:15.628Z,30.093
2022-10-01T16:00:15.625Z,30.087
2022-10-01T16:05:19.591Z,30.083
2022-10-01T16:10:18.570Z,30.082
2022-10-01T16:15:18.608Z,30.077
2022-10-01T16:20:15.654Z,30.076
2022-10-01T16:25:18.600Z,30.079
2022-10-01T16:30:18.595Z,30.079
2022-10-01T16:35:18.582Z,30.082
2022-10-01T16:40:16.672Z,30.087
2022-10-01T16:45:18.591Z,30.086
2022-10-01T16:50:18.660Z,30.087
2022-10-01T16:55:18.571Z,30.086
2022-10-01T17:00:15.618Z,30.079
2022-10-01T17:05:18.637Z,30.078
2022-10-01T17:10:19.652Z,30.076
2022-10-01T17:15:18.715Z,30.076
2022-10-01T17:20:15.638Z,30.076
2022-10-01T17:25:18.639Z,30.069
2022-10-01T17:30:15.682Z,30.068
2022-10-01T17:35:18.620Z,30.073
2022-10-01T17:40:15.656Z,30.073
2022-10-01T17:45:16.591Z,30.073
2022-10-01T17:50:18.682Z,30.071
2022-10-01T17:55:18.625Z,30.071
2022-10-01T18:00:18.587Z,30.071
2022-10-01T18:05:15.637Z,30.071
2022-10-01T18:10:15.731Z,30.064
2022-10-01T18:15:19.662Z,30.066
2022-10-01T18:20:15.656Z,30.069
2022-10-01T18:25:15.652Z,30.068
2022-10-01T18:30:18.634Z,30.065
2022-10-01T18:35:18.622Z,30.065
2022-10-01T18:40:18.636Z,30.065
2022-10-01T18:45:15.685Z,30.067
2022-10-01T18:50:19.690Z,30.058
2022-10-01T18:55:21.092Z,30.054
2022-10-01T19:00:18.665Z,30.045
2022-10-01T19:05:18.682Z,30.045
2022-10-01T19:10:15.752Z,30.046
2022-10-01T19:15:18.652Z,30.055
2022-10-01T19:20:18.680Z,30.061
2022-10-01T19:25:16.647Z,30.062
2022-10-01T19:30:15.675Z,30.057
2022-10-01T19:35:18.662Z,30.047
2022-10-01T19:40:18.654Z,30.042
2022-10-01T19:45:18.658Z,30.047
2022-10-01T19:50:15.691Z,30.051
2022-10-01T19:55:15.750Z,30.054
2022-10-01T20:00:19.679Z,30.050
2022-10-01T20:05:18.679Z,30.044
2022-10-01T20:10:18.660Z,30.042
2022-10-01T20:15:15.723Z,30.046
2022-10-01T20:20:18.674Z,30.047
2022-10-01T20:25:18.715Z,30.045
2022-10-01T20:30:18.667Z,30.032
2022-10-01T20:35:16.690Z,30.031
2022-10-01T20:40:15.720Z,30.033
2022-10-01T20:45:18.716Z,30.037
2022-10-01T20:50:18.688Z,30.041
2022-10-01T20:55:18.703Z,30.042
2022-10-01T21:00:15.740Z,30.045
2022-10-01T21:05:15.806Z,30.044
2022-10-01T21:10:19.744Z,30.042
2022-10-01T21:15:18.698Z,30.044
2022-10-01T21:20:18.687Z,30.042
2022-10-01T21:25:15.612Z,30.040
2022-10-01T21:30:18.702Z,30.043
2022-10-01T21:35:18.729Z,30.045
2022-10-01T21:40:18.721Z,30.045
2022-10-01T21:45:19.649Z,30.049
2022-10-01T21:50:18.703Z,30.049
2022-10-01T21:55:15.775Z,30.050
2022-10-01T22:00:15.707Z,30.050
2022-10-01T22:05:15.814Z,30.050
2022-10-01T22:10:18.812Z,30.047
2022-10-01T22:15:18.729Z,30.048
2022-10-01T22:20:16.670Z,30.047
2022-10-01T22:25:15.812Z,30.045
2022-10-01T22:30:18.741Z,30.051
2022-10-01T22:35:18.712Z,30.057
2022-10-01T22:40:18.724Z,30.052
2022-10-01T22:45:15.773Z,30.045
2022-10-01T22:50:15.745Z,30.051
2022-10-01T22:55:16.746Z,30.043
2022-10-01T23:00:18.765Z,30.045
2022-10-01T23:05:18.753Z,30.047
2022-10-01T23:10:18.739Z,30.041
2022-10-01T23:15:15.792Z,30.038
2022-10-01T23:20:18.816Z,30.039
2022-10-01T23:25:15.886Z,30.039
2022-10-01T23:30:19.815Z,30.038
2022-10-01T23:35:15.787Z,30.037
2022-10-01T23:40:15.847Z,30.034
2022-10-01T23:45:18.771Z,30.033
2022-10-01T23:50:18.756Z,30.032
2022-10-01T23:55:18.748Z,30.032
